createdAt,value
2018-06-15T00:00:22.788Z,16.20
2018-06-15T00:02:56.496Z,16.20
2018-06-15T00:05:25.056Z,16.10
2018-06-15T00:07:53.462Z,16.10
2018-06-15T00:10:21.895Z,16.00
2018-06-15T00:12:50.371Z,16.10
2018-06-15T00:15:19.323Z,16.10
2018-06-15T00:17:47.736Z,16.10
2018-06-15T00:20:16.178Z,16.00
2018-06-15T00:22:44.615Z,16.00
2018-06-15T00:27:41.355Z,16.00
2018-06-15T00:30:09.784Z,15.90
2018-06-15T00:32:38.291Z,15.90
2018-06-15T00:35:06.758Z,15.90
2018-06-15T00:37:35.181Z,15.90
2018-06-15T00:40:03.703Z,15.90
2018-06-15T00:42:32.146Z,15.90
2018-06-15T00:45:00.573Z,15.90
2018-06-15T00:47:29.023Z,15.90
2018-06-15T00:49:57.479Z,15.80
2018-06-15T00:52:25.907Z,15.70
2018-06-15T00:54:54.343Z,15.50
2018-06-15T00:57:34.003Z,15.50
2018-06-15T01:00:02.464Z,15.50
2018-06-15T01:02:30.879Z,15.40
2018-06-15T01:07:27.419Z,15.30
2018-06-15T01:09:55.851Z,15.40
2018-06-15T01:12:24.263Z,15.40
2018-06-15T01:14:52.706Z,15.40
2018-06-15T01:17:21.122Z,15.40
2018-06-15T01:19:49.551Z,15.40
2018-06-15T01:22:17.962Z,15.50
2018-06-15T01:24:46.391Z,15.50
2018-06-15T01:27:14.817Z,15.50
2018-06-15T01:29:43.243Z,15.50
2018-06-15T01:34:39.772Z,15.50
2018-06-15T01:37:08.227Z,15.50
2018-06-15T01:39:36.654Z,15.60
2018-06-15T01:42:05.059Z,15.60
2018-06-15T01:44:33.494Z,15.60
2018-06-15T01:47:01.899Z,15.60
2018-06-15T01:49:30.325Z,15.60
2018-06-15T01:51:58.760Z,15.60
2018-06-15T01:56:55.307Z,15.60
2018-06-15T01:59:23.743Z,15.70
2018-06-15T02:01:52.168Z,15.70
2018-06-15T02:04:20.606Z,15.70
2018-06-15T02:06:49.046Z,15.60
2018-06-15T02:09:17.467Z,15.50
2018-06-15T02:11:45.941Z,15.50
2018-06-15T02:14:14.359Z,15.40
2018-06-15T02:16:42.784Z,15.40
2018-06-15T02:19:11.253Z,15.50
2018-06-15T02:24:07.786Z,15.40
2018-06-15T02:26:36.190Z,15.40
2018-06-15T02:29:04.643Z,15.40
2018-06-15T02:31:33.067Z,15.40
2018-06-15T02:34:01.527Z,15.30
2018-06-15T02:36:30.021Z,15.30
2018-06-15T02:38:58.479Z,15.30
2018-06-15T02:41:26.934Z,15.30
2018-06-15T02:43:55.412Z,15.20
2018-06-15T02:46:23.868Z,15.20
2018-06-15T02:48:52.695Z,15.10
2018-06-15T03:01:13.888Z,15.10
2018-06-15T03:06:10.500Z,15.00
2018-06-15T03:08:38.952Z,14.90
2018-06-15T03:11:07.452Z,14.90
2018-06-15T03:13:36.659Z,14.90
2018-06-15T03:16:05.132Z,14.90
2018-06-15T03:18:33.612Z,14.90
2018-06-15T03:21:02.195Z,14.90
2018-06-15T03:23:30.675Z,14.90
2018-06-15T03:25:59.264Z,15.00
2018-06-15T03:28:27.740Z,15.00
2018-06-15T03:30:56.204Z,15.10
2018-06-15T03:33:24.672Z,15.00
2018-06-15T03:35:53.155Z,15.00
2018-06-15T03:40:49.779Z,14.90
2018-06-15T03:43:18.272Z,14.90
2018-06-15T03:48:14.940Z,14.90
2018-06-15T03:53:11.577Z,14.90
2018-06-15T03:55:40.042Z,14.90
2018-06-15T03:58:08.527Z,14.90
2018-06-15T04:00:37.020Z,15.00
2018-06-15T04:03:05.651Z,15.00
2018-06-15T04:05:34.129Z,15.00
2018-06-15T04:08:02.608Z,15.10
2018-06-15T04:10:31.096Z,15.10
2018-06-15T04:12:59.603Z,15.00
2018-06-15T04:15:28.080Z,15.00
2018-06-15T04:18:01.825Z,15.10
2018-06-15T04:20:30.324Z,15.10
2018-06-15T04:22:59.107Z,15.20
2018-06-15T04:27:56.300Z,15.30
2018-06-15T04:30:24.781Z,15.30
2018-06-15T04:32:53.327Z,15.30
2018-06-15T04:37:49.964Z,15.40
2018-06-15T04:40:18.436Z,15.40
2018-06-15T04:42:46.959Z,15.30
2018-06-15T04:45:15.436Z,15.40
2018-06-15T04:50:12.063Z,15.40
2018-06-15T04:52:40.521Z,15.40
2018-06-15T04:55:08.996Z,15.40
2018-06-15T04:57:37.467Z,15.50
2018-06-15T05:00:06.004Z,15.60
2018-06-15T05:07:30.807Z,15.70
2018-06-15T05:09:59.304Z,15.70
2018-06-15T05:12:27.732Z,15.70
2018-06-15T05:14:56.220Z,15.80
2018-06-15T05:17:24.676Z,15.80
2018-06-15T05:24:49.491Z,15.90
2018-06-15T05:27:17.967Z,16.00
2018-06-15T05:29:46.428Z,16.10
2018-06-15T05:32:14.914Z,16.10
2018-06-15T05:34:43.384Z,16.20
2018-06-15T05:37:11.902Z,16.30
2018-06-15T05:42:08.516Z,16.40
2018-06-15T05:44:36.987Z,16.50
2018-06-15T05:47:05.499Z,16.60
2018-06-15T05:49:33.995Z,16.70
2018-06-15T05:54:30.618Z,16.90
2018-06-15T05:56:59.092Z,16.90
2018-06-15T05:59:27.559Z,16.90
2018-06-15T06:01:56.056Z,16.90
2018-06-15T06:04:24.515Z,16.90
2018-06-15T06:06:53.000Z,16.90
2018-06-15T06:09:21.479Z,16.90
2018-06-15T06:11:49.962Z,17.00
2018-06-15T06:14:18.424Z,17.10
2018-06-15T06:16:46.888Z,17.20
2018-06-15T06:19:15.363Z,17.30
2018-06-15T06:24:12.000Z,17.40
2018-06-15T06:26:40.455Z,17.50
2018-06-15T06:29:08.912Z,17.60
2018-06-15T06:31:37.393Z,17.60
2018-06-15T06:34:05.895Z,17.60
2018-06-15T06:36:34.404Z,17.60
2018-06-15T06:39:02.908Z,17.60
2018-06-15T06:43:59.583Z,17.60
2018-06-15T06:46:28.066Z,17.50
2018-06-15T06:48:56.760Z,17.50
2018-06-15T06:51:25.215Z,17.50
2018-06-15T06:53:53.739Z,17.50
2018-06-15T06:56:22.220Z,17.50
2018-06-15T06:58:50.704Z,17.50
2018-06-15T07:01:19.173Z,17.60
2018-06-15T07:03:47.652Z,17.70
2018-06-15T07:06:16.191Z,17.80
2018-06-15T07:08:44.682Z,17.90
2018-06-15T07:16:09.488Z,18.10
2018-06-15T07:18:38.068Z,18.20
2018-06-15T07:21:06.610Z,18.30
2018-06-15T07:23:35.141Z,18.30
2018-06-15T07:26:03.852Z,18.40
2018-06-15T07:31:01.188Z,18.70
2018-06-15T07:33:29.725Z,18.90
2018-06-15T07:35:58.152Z,19.00
2018-06-15T07:38:26.684Z,19.20
2018-06-15T07:40:55.144Z,19.30
2018-06-15T07:45:51.772Z,19.50
2018-06-15T07:48:20.248Z,19.70
2018-06-15T07:50:48.732Z,19.90
2018-06-15T07:53:17.200Z,20.10
2018-06-15T07:55:45.695Z,20.30
2018-06-15T07:58:14.160Z,20.40
2018-06-15T08:00:42.649Z,20.60
2018-06-15T08:03:11.191Z,20.70
2018-06-15T08:05:39.647Z,20.80
2018-06-15T08:08:08.184Z,21.00
2018-06-15T08:10:36.635Z,20.90
2018-06-15T08:13:05.143Z,20.90
2018-06-15T08:15:33.600Z,20.90
2018-06-15T08:18:02.076Z,20.90
2018-06-15T08:20:30.536Z,20.90
2018-06-15T08:25:27.157Z,20.80
2018-06-15T08:27:55.607Z,20.90
2018-06-15T08:30:24.079Z,20.80
2018-06-15T08:32:52.548Z,20.90
2018-06-15T08:35:21.028Z,21.00
2018-06-15T08:37:49.484Z,21.20
2018-06-15T08:40:18.008Z,21.50
2018-06-15T08:42:46.460Z,21.80
2018-06-15T08:45:14.924Z,22.10
2018-06-15T08:47:43.419Z,22.20
2018-06-15T08:50:11.927Z,22.50
2018-06-15T08:52:40.421Z,22.70
2018-06-15T08:55:08.880Z,22.80
2018-06-15T09:05:01.829Z,23.10
2018-06-15T09:07:30.299Z,23.10
2018-06-15T09:09:58.784Z,23.20
2018-06-15T09:12:27.236Z,23.40
2018-06-15T09:14:55.704Z,23.20
2018-06-15T09:17:24.171Z,23.00
2018-06-15T09:22:20.856Z,22.80
2018-06-15T09:24:49.432Z,22.90
2018-06-15T09:27:17.912Z,23.00
2018-06-15T09:29:46.381Z,23.10
2018-06-15T09:34:42.980Z,23.60
2018-06-15T09:37:11.459Z,23.70
2018-06-15T09:39:39.916Z,24.00
2018-06-15T09:42:08.378Z,24.30
2018-06-15T09:47:05.004Z,24.60
2018-06-15T09:49:33.488Z,24.80
2018-06-15T09:52:01.952Z,24.90
2018-06-15T09:54:30.435Z,24.80
2018-06-15T09:56:59.164Z,24.80
2018-06-15T10:01:55.812Z,24.80
2018-06-15T10:04:24.275Z,24.90
2018-06-15T10:06:52.764Z,25.00
2018-06-15T10:09:21.219Z,25.20
2018-06-15T10:11:49.696Z,25.50
2018-06-15T10:14:18.156Z,25.50
2018-06-15T10:16:46.682Z,25.80
2018-06-15T10:19:15.116Z,25.80
2018-06-15T10:21:43.611Z,25.60
2018-06-15T10:24:12.075Z,25.60
2018-06-15T10:26:40.534Z,25.70
2018-06-15T10:31:37.408Z,25.80
2018-06-15T10:34:06.240Z,26.00
2018-06-15T10:36:34.745Z,26.00
2018-06-15T10:39:03.416Z,25.90
2018-06-15T10:41:31.864Z,25.90
2018-06-15T10:44:00.345Z,25.80
2018-06-15T10:46:28.796Z,25.70
2018-06-15T10:51:25.411Z,25.50
2018-06-15T10:53:53.904Z,25.40
2018-06-15T10:56:22.418Z,25.30
2018-06-15T10:58:50.874Z,25.10
2018-06-15T11:01:19.335Z,25.00
2018-06-15T11:03:47.815Z,24.90
2018-06-15T11:06:16.264Z,24.70
2018-06-15T11:08:44.772Z,24.50
2018-06-15T11:11:13.252Z,24.30
2018-06-15T11:13:41.719Z,24.00
2018-06-15T11:16:10.204Z,23.90
2018-06-15T11:18:38.659Z,23.70
2018-06-15T11:21:07.160Z,23.70
2018-06-15T11:23:35.671Z,23.60
2018-06-15T11:26:04.160Z,23.60
2018-06-15T11:28:32.612Z,23.60
2018-06-15T11:31:01.147Z,23.60
2018-06-15T11:33:29.580Z,23.50
2018-06-15T11:35:58.039Z,23.50
2018-06-15T11:38:26.524Z,23.50
2018-06-15T11:40:55.011Z,23.50
2018-06-15T11:43:23.502Z,23.40
2018-06-15T11:45:51.951Z,23.10
2018-06-15T11:48:20.430Z,23.10
2018-06-15T11:50:48.895Z,23.00
2018-06-15T11:55:45.523Z,23.00
2018-06-15T11:58:13.980Z,23.30
2018-06-15T12:00:42.467Z,23.60
2018-06-15T12:03:10.928Z,23.80
2018-06-15T12:05:39.420Z,23.90
2018-06-15T12:08:07.987Z,24.10
2018-06-15T12:10:36.456Z,24.30
2018-06-15T12:13:04.908Z,24.70
2018-06-15T12:15:33.363Z,25.20
2018-06-15T12:18:01.841Z,25.90
2018-06-15T12:20:30.319Z,26.30
2018-06-15T12:22:58.807Z,26.70
2018-06-15T12:25:27.276Z,26.70
2018-06-15T12:27:55.754Z,26.90
2018-06-15T12:30:24.222Z,27.20
2018-06-15T12:32:52.676Z,27.80
2018-06-15T12:37:49.299Z,29.90
2018-06-15T12:40:17.773Z,30.70
2018-06-15T12:42:46.344Z,32.60
2018-06-15T12:45:14.851Z,32.80
2018-06-15T12:47:43.307Z,34.60
2018-06-15T12:50:11.808Z,35.30
2018-06-15T12:52:40.279Z,34.40
2018-06-15T12:55:08.751Z,34.10
2018-06-15T12:57:37.306Z,35.00
2018-06-15T13:00:05.839Z,35.80
2018-06-15T13:02:34.576Z,37.20
2018-06-15T13:05:03.052Z,37.70
2018-06-15T13:07:31.495Z,38.10
2018-06-15T13:10:00.624Z,37.50
2018-06-15T13:12:29.799Z,36.30
2018-06-15T13:14:58.393Z,35.10
2018-06-15T13:17:26.847Z,33.80
2018-06-15T13:19:55.347Z,32.60
2018-06-15T13:22:23.804Z,32.00
2018-06-15T13:24:52.316Z,31.10
2018-06-15T13:29:48.920Z,30.00
2018-06-15T13:32:17.408Z,29.40
2018-06-15T13:34:45.876Z,28.90
2018-06-15T13:37:14.348Z,28.60
2018-06-15T13:39:42.852Z,28.30
2018-06-15T13:42:11.309Z,28.00
2018-06-15T13:44:39.762Z,27.70
2018-06-15T13:49:36.395Z,27.10
2018-06-15T13:52:04.856Z,26.90
2018-06-15T13:54:33.335Z,26.60
2018-06-15T13:57:01.843Z,26.40
2018-06-15T13:59:30.288Z,26.20
2018-06-15T14:01:58.748Z,26.10
2018-06-15T14:04:27.266Z,25.80
2018-06-15T14:06:55.812Z,25.70
2018-06-15T14:11:52.364Z,25.60
2018-06-15T14:14:20.832Z,25.50
2018-06-15T14:16:49.304Z,25.50
2018-06-15T14:19:17.744Z,25.40
2018-06-15T14:21:46.228Z,25.40
2018-06-15T14:24:14.676Z,25.30
2018-06-15T14:26:43.164Z,25.30
2018-06-15T14:29:11.628Z,25.20
2018-06-15T14:31:40.124Z,25.20
2018-06-15T14:34:08.608Z,25.10
2018-06-15T14:36:37.093Z,25.10
2018-06-15T14:39:07.673Z,25.10
2018-06-15T14:44:04.328Z,25.10
2018-06-15T14:49:00.949Z,25.10
2018-06-15T14:51:29.592Z,25.10
2018-06-15T14:53:58.072Z,25.10
2018-06-15T14:58:54.679Z,25.00
2018-06-15T15:01:23.147Z,24.90
2018-06-15T15:03:51.603Z,24.80
2018-06-15T15:06:20.080Z,24.70
2018-06-15T15:08:48.540Z,24.60
2018-06-15T15:13:45.140Z,24.50
2018-06-15T15:16:13.628Z,24.40
2018-06-15T15:18:42.084Z,24.30
2018-06-15T15:21:10.560Z,24.30
2018-06-15T15:23:39.040Z,24.30
2018-06-15T15:26:07.498Z,24.20
2018-06-15T15:28:35.984Z,24.20
2018-06-15T15:33:32.608Z,24.10
2018-06-15T15:36:01.120Z,24.10
2018-06-15T15:41:14.984Z,23.90
2018-06-15T15:43:43.487Z,24.00
2018-06-15T15:46:11.924Z,23.90
2018-06-15T15:48:40.345Z,23.90
2018-06-15T15:51:08.783Z,23.90
2018-06-15T15:53:37.209Z,23.90
2018-06-15T15:56:05.692Z,23.80
2018-06-15T15:58:34.116Z,23.70
2018-06-15T16:01:02.559Z,23.70
2018-06-15T16:03:31.004Z,23.80
2018-06-15T16:05:59.456Z,23.80
2018-06-15T16:08:27.880Z,23.80
2018-06-15T16:10:56.308Z,24.00
2018-06-15T16:13:24.888Z,24.10
2018-06-15T16:15:53.308Z,24.40
2018-06-15T16:18:21.748Z,24.60
2018-06-15T16:20:50.173Z,24.80
2018-06-15T16:23:18.739Z,25.10
2018-06-15T16:25:47.168Z,25.40
2018-06-15T16:28:15.592Z,25.60
2018-06-15T16:30:44.039Z,25.80
2018-06-15T16:33:12.476Z,25.80
2018-06-15T16:38:09.023Z,26.10
2018-06-15T16:43:05.891Z,26.20
2018-06-15T16:45:34.359Z,26.10
2018-06-15T16:48:02.787Z,25.90
2018-06-15T16:50:31.237Z,25.80
2018-06-15T16:55:27.788Z,25.70
2018-06-15T16:57:56.240Z,25.60
2018-06-15T17:00:24.656Z,25.60
2018-06-15T17:02:53.156Z,25.50
2018-06-15T17:05:21.582Z,25.40
2018-06-15T17:07:50.044Z,25.30
2018-06-15T17:10:18.551Z,25.20
2018-06-15T17:12:47.032Z,25.20
2018-06-15T17:15:15.451Z,25.10
2018-06-15T17:17:43.873Z,25.00
2018-06-15T17:20:12.320Z,24.90
2018-06-15T17:22:40.747Z,24.80
2018-06-15T17:25:09.211Z,24.60
2018-06-15T17:27:37.632Z,24.50
2018-06-15T17:35:02.387Z,24.30
2018-06-15T17:37:30.824Z,24.10
2018-06-15T17:39:59.244Z,24.00
2018-06-15T17:42:27.691Z,23.90
2018-06-15T17:44:56.116Z,23.80
2018-06-15T17:47:24.568Z,23.70
2018-06-15T17:52:21.116Z,23.60
2018-06-15T17:57:17.656Z,23.50
2018-06-15T17:59:46.123Z,23.40
2018-06-15T18:02:14.548Z,23.30
2018-06-15T18:04:43.000Z,23.20
2018-06-15T18:07:11.423Z,23.20
2018-06-15T18:09:39.868Z,23.20
2018-06-15T18:14:36.487Z,23.00
2018-06-15T18:17:04.968Z,23.00
2018-06-15T18:19:33.395Z,22.90
2018-06-15T18:24:29.968Z,22.70
2018-06-15T18:26:58.424Z,22.70
2018-06-15T18:31:54.980Z,22.60
2018-06-15T18:36:51.535Z,22.50
2018-06-15T18:41:48.108Z,22.40
2018-06-15T18:44:16.556Z,22.30
2018-06-15T18:46:44.975Z,22.30
2018-06-15T18:49:14.291Z,22.20
2018-06-15T18:51:42.720Z,22.10
2018-06-15T18:56:39.295Z,22.00
2018-06-15T18:59:07.715Z,21.90
2018-06-15T19:01:36.175Z,21.80
2018-06-15T19:04:04.815Z,21.70
2018-06-15T19:06:33.278Z,21.70
2018-06-15T19:09:01.708Z,21.60
2018-06-15T19:11:30.412Z,21.60
2018-06-15T19:13:58.886Z,21.60
2018-06-15T19:16:27.321Z,21.50
2018-06-15T19:18:55.759Z,21.50
2018-06-15T19:21:24.276Z,21.40
2018-06-15T19:23:52.732Z,21.40
2018-06-15T19:26:21.152Z,21.30
2018-06-15T19:28:49.646Z,21.30
2018-06-15T19:31:18.063Z,21.20
2018-06-15T19:33:46.524Z,21.20
2018-06-15T19:36:14.951Z,21.10
2018-06-15T19:38:43.383Z,21.10
2018-06-15T19:41:11.848Z,21.00
2018-06-15T19:43:40.271Z,21.00
2018-06-15T19:46:08.726Z,21.00
2018-06-15T19:48:37.148Z,20.90
2018-06-15T19:51:05.651Z,20.80
2018-06-15T19:53:34.080Z,20.80
2018-06-15T19:56:02.539Z,20.70
2018-06-15T19:58:30.975Z,20.70
2018-06-15T20:00:59.444Z,20.60
2018-06-15T20:03:27.884Z,20.60
2018-06-15T20:05:56.439Z,20.60
2018-06-15T20:08:24.891Z,20.50
2018-06-15T20:10:53.355Z,20.40
2018-06-15T20:13:21.787Z,20.40
2018-06-15T20:15:50.215Z,20.30
2018-06-15T20:18:18.668Z,20.30
2018-06-15T20:23:15.239Z,20.10
2018-06-15T20:25:43.668Z,20.10
2018-06-15T20:28:12.119Z,20.00
2018-06-15T20:30:40.569Z,20.00
2018-06-15T20:33:09.031Z,19.90
2018-06-15T20:35:37.453Z,19.90
2018-06-15T20:38:05.999Z,19.80
2018-06-15T20:43:02.568Z,19.70
2018-06-15T20:45:31.048Z,19.70
2018-06-15T20:47:59.460Z,19.60
2018-06-15T20:50:27.908Z,19.60
2018-06-15T20:52:56.335Z,19.50
2018-06-15T20:55:24.788Z,19.40
2018-06-15T20:57:53.200Z,19.40
2018-06-15T21:00:21.664Z,19.30
2018-06-15T21:02:50.092Z,19.20
2018-06-15T21:05:18.547Z,19.20
2018-06-15T21:07:47.014Z,19.10
2018-06-15T21:10:15.448Z,19.10
2018-06-15T21:15:12.020Z,19.10
2018-06-15T21:17:40.471Z,19.00
2018-06-15T21:22:37.080Z,18.90
2018-06-15T21:25:05.576Z,18.90
2018-06-15T21:27:34.005Z,18.80
2018-06-15T21:30:02.464Z,18.80
2018-06-15T21:34:59.128Z,18.80
2018-06-15T21:39:55.687Z,18.70
2018-06-15T21:42:24.125Z,18.60
2018-06-15T21:44:52.592Z,18.60
2018-06-15T21:47:21.019Z,18.60
2018-06-15T21:52:17.592Z,18.50
2018-06-15T21:54:46.024Z,18.50
2018-06-15T21:57:14.488Z,18.50
2018-06-15T21:59:42.948Z,18.40
2018-06-15T22:02:11.400Z,18.40
2018-06-15T22:07:07.947Z,18.30
2018-06-15T22:12:04.596Z,18.30
2018-06-15T22:14:33.036Z,18.30
2018-06-15T22:17:01.484Z,18.20
2018-06-15T22:19:29.958Z,18.20
2018-06-15T22:24:26.524Z,18.10
2018-06-15T22:26:54.956Z,18.00
2018-06-15T22:29:23.384Z,18.00
2018-06-15T22:31:51.835Z,17.90
2018-06-15T22:34:20.267Z,17.90
2018-06-15T22:36:48.712Z,17.90
2018-06-15T22:39:17.135Z,17.90
2018-06-15T22:41:45.588Z,17.80
2018-06-15T22:44:14.346Z,17.80
2018-06-15T22:49:12.119Z,17.70
2018-06-15T22:51:41.325Z,17.60
2018-06-15T22:54:10.024Z,17.60
2018-06-15T22:59:06.663Z,17.60
2018-06-15T23:01:35.096Z,17.60
2018-06-15T23:04:03.575Z,17.60
2018-06-15T23:06:32.053Z,17.50
2018-06-15T23:09:07.020Z,17.50
2018-06-15T23:11:35.464Z,17.40
2018-06-15T23:14:03.995Z,17.40
2018-06-15T23:16:32.431Z,17.40
2018-06-15T23:19:00.891Z,17.40
2018-06-15T23:21:29.311Z,17.40
2018-06-15T23:23:57.759Z,17.40
2018-06-15T23:26:26.223Z,17.40
2018-06-15T23:31:22.988Z,17.30
2018-06-15T23:33:51.419Z,17.30
2018-06-15T23:36:19.881Z,17.30
2018-06-15T23:38:48.307Z,17.20
2018-06-15T23:43:44.941Z,17.10
2018-06-15T23:46:13.484Z,17.10
2018-06-15T23:48:41.944Z,17.10
2018-06-15T23:53:38.543Z,17.10
2018-06-15T23:56:07.054Z,17.00
2018-06-15T23:58:35.567Z,17.00
